Time;durP1;ratioP1;P1;durP2;ratioP2;P2;SDS_P1;SDS_P2;PMS_P1;PMS_P2;Temp;Humidity;BMP_temperature;BMP_pressure;BME280_temperature;BME280_humidity;BME280_pressure;Samples;Min_cycle;Max_cycle;Signal;HPM_P1;HPM_P2
2022/12/11 00:02:08;;;;;;;10.55;4.90;;;;;;;8.60;94.16;93226.08;1787924;80;21017;-67
2022/12/11 00:04:35;;;;;;;9.13;5.03;;;;;;;8.59;93.90;93221.73;1787398;80;21002;-67
2022/12/11 00:07:01;;;;;;;13.20;5.65;;;;;;;8.60;94.11;93218.20;1787829;80;21024;-66
2022/12/11 00:09:28;;;;;;;13.43;6.15;;;;;;;8.59;94.07;93214.73;1787894;80;21029;-66
2022/12/11 00:11:55;;;;;;;11.43;6.05;;;;;;;8.66;94.16;93213.47;1787902;80;21006;-66
2022/12/11 00:14:22;;;;;;;11.78;5.25;;;;;;;8.72;93.94;93200.95;1787743;80;21072;-66
2022/12/11 00:16:48;;;;;;;13.88;5.85;;;;;;;8.74;93.74;93193.38;1787855;80;20973;-66
2022/12/11 00:19:15;;;;;;;9.70;5.30;;;;;;;8.74;93.49;93199.10;1787675;80;21507;-66
2022/12/11 00:21:42;;;;;;;13.32;5.85;;;;;;;8.76;93.58;93196.78;1787585;80;20986;-66
2022/12/11 00:24:09;;;;;;;9.23;5.25;;;;;;;8.77;93.18;93195.88;1787387;80;21467;-67
2022/12/11 00:26:35;;;;;;;8.88;5.60;;;;;;;8.73;92.78;93191.69;1787729;80;20971;-67
2022/12/11 00:29:03;;;;;;;11.30;5.62;;;;;;;8.75;93.04;93190.30;1787911;80;20988;-66
2022/12/11 00:31:30;;;;;;;10.80;4.22;;;;;;;8.72;93.16;93179.48;1787512;80;21467;-66
2022/12/11 00:33:57;;;;;;;15.30;5.60;;;;;;;8.67;92.66;93176.23;1787495;80;21014;-66
2022/12/11 00:36:25;;;;;;;10.48;4.83;;;;;;;8.56;92.60;93178.05;1787433;80;21484;-66
2022/12/11 00:38:53;;;;;;;10.35;5.58;;;;;;;8.53;92.96;93176.90;1755767;80;21037;-66
2022/12/11 00:41:20;;;;;;;16.02;6.00;;;;;;;8.49;93.02;93168.77;1787599;80;21455;-66
2022/12/11 00:43:47;;;;;;;13.38;6.78;;;;;;;8.46;93.08;93157.09;1787457;80;21017;-67
2022/12/11 00:46:14;;;;;;;13.10;6.05;;;;;;;8.48;93.28;93161.82;1787326;80;21017;-66
2022/12/11 00:48:41;;;;;;;12.93;7.33;;;;;;;8.50;93.10;93156.03;1787361;80;21021;-66
2022/12/11 00:51:08;;;;;;;12.97;6.97;;;;;;;8.48;93.04;93151.78;1787636;80;20985;-66
2022/12/11 00:53:36;;;;;;;15.85;7.50;;;;;;;8.50;93.09;93145.99;1787566;80;21689;-67
2022/12/11 00:56:11;;;;;;;14.75;7.37;;;;;;;8.49;93.00;93150.38;1787372;80;21052;-66
2022/12/11 00:58:37;;;;;;;15.50;8.23;;;;;;;8.53;93.20;93150.62;1787044;80;20998;-67
2022/12/11 01:01:10;;;;;;;19.80;8.13;;;;;;;8.55;92.89;93149.23;1787550;80;20997;-67
2022/12/11 01:03:37;;;;;;;12.00;7.25;;;;;;;8.57;92.84;93153.96;1787864;80;21478;-66
2022/12/11 01:06:05;;;;;;;16.73;7.90;;;;;;;8.57;92.59;93146.92;1787537;80;21455;-66
2022/12/11 01:08:32;;;;;;;12.53;7.12;;;;;;;8.59;92.56;93142.88;1787434;80;21053;-66
2022/12/11 01:11:05;;;;;;;10.20;5.95;;;;;;;8.58;92.59;93139.41;1787941;80;21046;-66
2022/12/11 01:13:32;;;;;;;8.70;5.62;;;;;;;8.56;92.61;93134.69;1787676;80;20974;-66
2022/12/11 01:15:59;;;;;;;11.80;7.05;;;;;;;8.50;92.41;93132.38;1787626;80;21370;-66
2022/12/11 01:18:25;;;;;;;15.72;6.40;;;;;;;8.48;92.57;93124.19;1787658;80;20978;-67
2022/12/11 01:20:52;;;;;;;13.83;7.10;;;;;;;8.47;92.74;93122.03;1787445;80;21024;-66
2022/12/11 01:23:19;;;;;;;11.55;6.05;;;;;;;8.48;92.73;93125.03;1787522;80;21002;-66
2022/12/11 01:25:46;;;;;;;11.97;6.85;;;;;;;8.49;92.72;93120.63;1787805;80;21009;-67
2022/12/11 01:28:12;;;;;;;13.00;6.30;;;;;;;8.49;92.65;93122.78;1787255;80;21006;-66
2022/12/11 01:30:42;;;;;;;16.27;6.60;;;;;;;8.52;92.90;93129.69;1787621;80;21309;-66
2022/12/11 01:33:09;;;;;;;11.00;6.28;;;;;;;8.52;92.80;93125.28;1787667;80;21526;-66
2022/12/11 01:35:38;;;;;;;15.45;7.33;;;;;;;8.55;92.85;93130.84;1787514;80;20969;-66
2022/12/11 01:38:04;;;;;;;12.65;6.45;;;;;;;8.58;93.10;93122.80;1787603;80;21022;-66
2022/12/11 01:40:31;;;;;;;10.60;5.80;;;;;;;8.60;92.88;93127.05;1787887;80;21046;-66
2022/12/11 01:42:58;;;;;;;9.48;6.20;;;;;;;8.56;92.64;93121.55;1787253;80;21010;-67
2022/12/11 01:45:35;;;;;;;13.90;6.40;;;;;;;8.53;92.67;93117.77;1787881;80;21025;-66
2022/12/11 01:48:16;;;;;;;11.08;5.83;;;;;;;8.47;92.62;93118.09;1787947;80;21006;-66
2022/12/11 01:50:48;;;;;;;14.28;6.28;;;;;;;8.40;92.75;93112.75;1785955;80;20994;-66
2022/12/11 01:53:22;;;;;;;13.43;6.30;;;;;;;8.37;93.20;93100.58;1787921;80;21006;-67
2022/12/11 01:55:52;;;;;;;11.18;5.87;;;;;;;8.38;93.61;93084.34;1787730;80;21932;-66
2022/12/11 01:58:22;;;;;;;16.02;6.28;;;;;;;8.36;93.16;93086.20;1793901;80;21005;-66
2022/12/11 02:00:49;;;;;;;10.28;5.90;;;;;;;8.36;93.57;93091.45;1796451;80;21024;-66
2022/12/11 02:03:16;;;;;;;11.50;5.80;;;;;;;8.31;93.27;93086.89;1768408;80;21041;-66
2022/12/11 02:05:42;;;;;;;12.23;5.90;;;;;;;8.26;93.61;93086.27;1795908;80;21013;-66
2022/12/11 02:08:10;;;;;;;12.85;5.70;;;;;;;8.19;93.65;93080.49;1796203;79;20993;-66
2022/12/11 02:10:57;;;;;;;9.93;5.87;;;;;;;8.12;93.72;93079.09;1796092;79;21006;-67
2022/12/11 02:13:53;;;;;;;12.15;6.00;;;;;;;8.10;94.27;93077.84;1796383;80;21475;-66
2022/12/11 02:16:34;;;;;;;9.28;6.10;;;;;;;8.10;94.48;93078.31;1793412;80;20981;-67
2022/12/11 02:19:41;;;;;;;11.45;5.90;;;;;;;8.07;94.58;93070.12;1795579;80;21490;-67
2022/12/11 02:22:13;;;;;;;10.45;5.55;;;;;;;8.06;94.54;93065.77;1795917;80;20978;-66
2022/12/11 02:25:04;;;;;;;12.95;6.00;;;;;;;8.01;94.45;93061.21;1796303;80;20984;-66
2022/12/11 02:27:45;;;;;;;14.38;5.97;;;;;;;8.01;94.46;93058.59;1796048;80;21005;-66
2022/12/11 02:30:15;;;;;;;10.60;5.80;;;;;;;8.00;94.57;93059.05;1795515;79;21052;-66
2022/12/11 02:32:57;;;;;;;10.35;6.22;;;;;;;8.02;94.88;93058.99;1796263;79;21005;-66
2022/12/11 02:35:31;;;;;;;12.73;5.72;;;;;;;8.03;94.95;93056.73;1796376;79;20989;-66
2022/12/11 02:38:09;;;;;;;10.75;5.60;;;;;;;8.02;94.97;93057.21;1795388;80;20992;-66
2022/12/11 02:40:39;;;;;;;11.90;6.10;;;;;;;8.00;94.95;93060.37;1796088;80;21483;-67
2022/12/11 02:43:10;;;;;;;17.82;6.42;;;;;;;7.98;95.09;93057.43;1796510;79;21039;-66
2022/12/11 02:45:40;;;;;;;10.25;6.17;;;;;;;7.97;95.48;93051.80;1796440;80;21459;-66
2022/12/11 02:48:10;;;;;;;12.25;6.55;;;;;;;7.98;95.50;93055.65;1796372;80;20992;-66
2022/12/11 02:50:44;;;;;;;12.00;6.37;;;;;;;7.96;95.50;93049.65;1796278;80;20981;-66
2022/12/11 02:53:15;;;;;;;11.48;5.87;;;;;;;7.94;95.49;93055.91;1796446;80;20985;-66
2022/12/11 02:55:44;;;;;;;13.13;6.50;;;;;;;7.95;95.68;93049.24;1796606;80;21112;-66
2022/12/11 02:58:25;;;;;;;21.00;9.73;;;;;;;7.95;95.69;93047.93;1791391;80;21523;-67
2022/12/11 03:00:51;;;;;;;11.30;5.35;;;;;;;7.96;95.49;93040.89;1787665;80;21503;-66
2022/12/11 03:03:18;;;;;;;9.73;4.83;;;;;;;7.97;95.59;93038.67;1788018;80;20973;-66
2022/12/11 03:05:45;;;;;;;11.50;5.60;;;;;;;7.96;95.39;93031.27;1787521;80;21483;-66
2022/12/11 03:08:16;;;;;;;11.50;5.85;;;;;;;7.94;95.33;93029.64;1787767;80;20970;-66
2022/12/11 03:10:40;;;;;;;10.38;5.25;;;;;;;7.96;95.79;93027.33;1787332;80;20994;-66
2022/12/11 03:13:06;;;;;;;9.78;5.37;;;;;;;7.96;95.84;93031.70;1787768;80;21025;-66
2022/12/11 03:15:54;;;;;;;13.80;4.75;;;;;;;7.95;95.68;93036.59;1787674;80;21010;-66
2022/12/11 03:18:29;;;;;;;10.55;5.60;;;;;;;7.92;95.69;93027.08;1787712;80;21519;-66
2022/12/11 03:21:16;;;;;;;15.23;5.35;;;;;;;7.91;95.78;93025.83;1785992;80;21014;-66
2022/12/11 03:23:53;;;;;;;10.13;5.30;;;;;;;7.91;95.99;93021.90;1787605;80;20981;-67
2022/12/11 03:26:22;;;;;;;9.25;4.72;;;;;;;7.85;95.77;93011.72;1787962;80;21022;-66
2022/12/11 03:29:05;;;;;;;8.03;5.00;;;;;;;7.83;95.67;93017.03;1787574;80;21014;-66
2022/12/11 03:31:37;;;;;;;13.70;5.22;;;;;;;7.78;95.77;93015.94;1787942;80;21000;-66
2022/12/11 03:34:09;;;;;;;13.32;6.08;;;;;;;7.75;95.79;93004.28;1787531;80;20966;-67
2022/12/11 03:36:38;;;;;;;12.13;5.45;;;;;;;7.76;95.89;92997.25;1787435;80;21510;-66
2022/12/11 03:39:25;;;;;;;8.75;5.00;;;;;;;7.76;96.25;92985.00;1787785;80;20981;-66
2022/12/11 03:41:53;;;;;;;10.58;6.00;;;;;;;7.77;96.11;92973.56;1787558;80;21048;-67
2022/12/11 03:44:22;;;;;;;15.58;6.22;;;;;;;7.76;96.28;92967.94;1787676;80;20975;-66
2022/12/11 03:46:50;;;;;;;18.35;8.45;;;;;;;7.76;96.34;92964.00;1787635;80;21049;-66
2022/12/11 03:49:21;;;;;;;11.38;4.90;;;;;;;7.77;96.59;92962.22;1787714;80;20969;-66
2022/12/11 03:51:51;;;;;;;7.97;5.22;;;;;;;7.73;96.28;92958.87;1787321;80;21013;-66
2022/12/11 03:54:19;;;;;;;11.88;5.45;;;;;;;7.73;96.56;92954.94;1787684;80;20974;-66
2022/12/11 03:56:47;;;;;;;11.50;5.67;;;;;;;7.77;96.79;92956.97;1787206;80;21053;-66
2022/12/11 03:59:14;;;;;;;9.30;5.08;;;;;;;7.80;96.85;92951.56;1778820;80;21045;-66
2022/12/11 04:01:41;;;;;;;13.95;5.87;;;;;;;7.84;97.22;92950.93;1777524;80;21038;-66
2022/12/11 04:04:07;;;;;;;12.33;5.22;;;;;;;7.88;97.22;92947.23;1778049;81;20950;-66
2022/12/11 04:06:34;;;;;;;10.68;6.12;;;;;;;7.89;97.05;92947.64;1777526;81;20998;-66
2022/12/11 04:09:01;;;;;;;10.45;6.17;;;;;;;7.89;97.31;92949.80;1777387;80;20982;-66
2022/12/11 04:11:33;;;;;;;17.05;7.83;;;;;;;7.90;97.31;92950.17;1777456;80;20978;-66
2022/12/11 04:16:53;;;;;;;16.00;6.85;;;;;;;7.96;97.56;92943.75;1777648;80;21515;-66
2022/12/11 04:24:52;;;;;;;10.90;6.17;;;;;;;7.92;97.22;92948.31;1777440;81;21049;-67
2022/12/11 04:30:09;;;;;;;11.88;5.62;;;;;;;7.95;97.22;92942.91;1777502;81;20990;-66
2022/12/11 04:32:36;;;;;;;9.88;6.40;;;;;;;7.98;97.38;92940.12;1777777;80;20970;-66
2022/12/11 04:35:06;;;;;;;11.63;7.22;;;;;;;8.00;97.40;92941.36;1778006;81;20998;-67
2022/12/11 04:37:33;;;;;;;9.48;5.58;;;;;;;8.00;97.16;92936.95;1777547;81;21446;-66
2022/12/11 04:39:59;;;;;;;11.90;6.05;;;;;;;8.02;96.96;92936.89;1777776;81;21002;-67
2022/12/11 04:42:26;;;;;;;14.75;6.87;;;;;;;7.99;96.71;92935.27;1777697;80;21041;-67
2022/12/11 04:44:52;;;;;;;19.73;9.90;;;;;;;7.97;96.76;92929.23;1777559;80;21532;-66
2022/12/11 04:47:19;;;;;;;12.15;7.40;;;;;;;8.01;97.36;92927.30;1777768;81;20998;-66
2022/12/11 04:49:45;;;;;;;16.40;7.92;;;;;;;8.00;96.72;92933.02;1777978;81;20986;-67
2022/12/11 04:52:12;;;;;;;13.75;6.40;;;;;;;8.00;96.81;92929.08;1777510;80;20978;-66
2022/12/11 04:54:39;;;;;;;9.80;5.53;;;;;;;8.02;96.77;92934.27;1777466;81;21006;-66
2022/12/11 04:57:06;;;;;;;8.55;5.45;;;;;;;8.02;96.98;92939.05;1777549;81;21010;-66
2022/12/11 04:59:33;;;;;;;8.68;4.85;;;;;;;8.12;97.60;92958.28;1786714;80;21069;-66
2022/12/11 05:01:59;;;;;;;9.93;4.97;;;;;;;8.15;97.55;92956.80;1787657;80;21021;-66
2022/12/11 05:04:32;;;;;;;12.85;5.37;;;;;;;8.23;97.87;92966.44;1787729;80;20981;-66
2022/12/11 05:06:59;;;;;;;;;;;;;;;8.22;96.85;92971.32;1790030;80;21032;-66
2022/12/11 05:09:27;;;;;;;19.90;9.25;;;;;;;8.23;97.14;92965.13;1787834;80;20133;-67
2022/12/11 05:11:53;;;;;;;20.60;10.45;;;;;;;8.21;96.87;92952.09;1787202;80;21494;-66
2022/12/11 05:14:20;;;;;;;20.23;9.75;;;;;;;8.29;97.06;92954.76;1787819;80;21045;-66
2022/12/11 05:16:47;;;;;;;44.75;18.27;;;;;;;8.23;96.04;92958.56;1787366;80;21021;-66
2022/12/11 05:19:16;;;;;;;103.00;42.83;;;;;;;8.16;95.88;92968.99;1757224;80;20998;-66
2022/12/11 05:21:42;;;;;;;51.02;25.50;;;;;;;8.08;95.92;92972.02;1787572;80;21532;-66
2022/12/11 05:24:09;;;;;;;42.40;22.73;;;;;;;8.07;96.70;92964.23;1787852;80;20950;-66
2022/12/11 05:26:36;;;;;;;31.55;15.72;;;;;;;8.08;96.53;92954.09;1787501;80;21524;-66
2022/12/11 05:29:02;;;;;;;28.92;16.73;;;;;;;8.06;96.35;92950.70;1788044;80;20969;-66
2022/12/11 05:31:29;;;;;;;27.00;15.43;;;;;;;8.07;96.83;92941.91;1788018;80;21001;-66
2022/12/11 05:33:56;;;;;;;17.30;10.23;;;;;;;8.10;96.80;92946.53;1787510;80;21005;-66
2022/12/11 05:36:29;;;;;;;17.27;10.08;;;;;;;8.12;96.78;92955.18;1787906;80;20986;-67
2022/12/11 05:38:58;;;;;;;17.77;11.18;;;;;;;8.09;96.50;92942.22;1787647;80;21025;-66
2022/12/11 05:41:28;;;;;;;53.23;31.12;;;;;;;8.07;96.40;92948.00;1787716;80;20989;-66
2022/12/11 05:43:56;;;;;;;21.80;12.98;;;;;;;8.02;96.24;92952.64;1787862;80;21001;-66
2022/12/11 05:46:26;;;;;;;28.65;16.50;;;;;;;8.03;96.58;92960.42;1788008;80;21032;-66
2022/12/11 05:48:57;;;;;;;28.62;17.67;;;;;;;8.01;96.47;92954.42;1787359;80;21018;-66
2022/12/11 05:51:24;;;;;;;25.88;15.90;;;;;;;8.04;96.85;92954.73;1788266;80;20989;-66
2022/12/11 05:53:53;;;;;;;24.05;14.90;;;;;;;8.04;96.84;92962.61;1787534;80;21475;-66
2022/12/11 05:56:25;;;;;;;16.50;11.48;;;;;;;8.02;96.65;92963.14;1787880;80;20982;-66
2022/12/11 05:58:53;;;;;;;13.93;9.95;;;;;;;8.01;96.62;92967.99;1787794;80;21029;-66
2022/12/11 06:01:30;;;;;;;15.18;9.53;;;;;;;8.01;96.79;92978.06;1787551;80;21029;-66
2022/12/11 06:03:58;;;;;;;13.72;8.25;;;;;;;8.00;96.81;92982.91;1787818;80;20993;-66
2022/12/11 06:06:26;;;;;;;12.98;6.03;;;;;;;7.97;96.46;92983.06;1787777;80;21005;-67
2022/12/11 06:08:55;;;;;;;9.28;4.30;;;;;;;7.99;96.74;92983.00;1787495;80;20998;-66
2022/12/11 06:11:23;;;;;;;2.67;1.42;;;;;;;8.01;96.91;92992.50;1787709;80;21009;-66
2022/12/11 06:13:51;;;;;;;0.75;0.40;;;;;;;8.05;96.53;92989.24;1788291;80;21004;-66
2022/12/11 06:16:18;;;;;;;0.10;0.10;;;;;;;8.12;91.99;92998.52;1787694;80;21043;-66
2022/12/11 06:18:45;;;;;;;0.15;0.13;;;;;;;8.16;88.75;92991.31;1787726;80;20978;-67
2022/12/11 06:21:24;;;;;;;0.23;0.20;;;;;;;8.23;85.11;93000.59;1787965;80;20990;-66
2022/12/11 06:23:53;;;;;;;0.10;0.10;;;;;;;8.18;84.01;93010.01;1787191;80;21504;-66
2022/12/11 06:26:21;;;;;;;0.40;0.10;;;;;;;8.16;84.15;93003.14;1787697;80;21068;-67
2022/12/11 06:28:49;;;;;;;0.20;0.20;;;;;;;8.12;83.05;93020.00;1787764;80;21017;-66
2022/12/11 06:31:17;;;;;;;0.20;0.20;;;;;;;7.99;81.34;93032.42;1787512;80;20968;-66
2022/12/11 06:33:44;;;;;;;0.10;0.10;;;;;;;7.89;81.40;93036.44;1787731;80;21454;-66
2022/12/11 06:36:15;;;;;;;0.10;0.10;;;;;;;7.87;78.44;93029.09;1787451;80;21064;-66
2022/12/11 06:38:43;;;;;;;0.17;0.05;;;;;;;7.86;78.79;93034.40;1787842;80;20997;-66
2022/12/11 06:41:11;;;;;;;0.10;0.10;;;;;;;7.79;78.62;93045.22;1787680;80;21021;-66
2022/12/11 06:43:40;;;;;;;0.10;0.10;;;;;;;7.75;78.92;93058.09;1787813;80;20946;-66
2022/12/11 06:46:12;;;;;;;0.10;0.10;;;;;;;7.68;81.14;93064.55;1787707;80;20998;-66
2022/12/11 06:48:41;;;;;;;0.68;0.10;;;;;;;7.57;80.28;93080.81;1787892;80;20990;-66
2022/12/11 06:51:11;;;;;;;0.10;0.10;;;;;;;7.42;78.65;93074.14;1787592;80;21041;-66
2022/12/11 06:53:38;;;;;;;0.00;0.00;;;;;;;7.22;76.19;93073.75;1787735;80;21025;-66
2022/12/11 06:56:12;;;;;;;0.20;0.00;;;;;;;7.11;77.09;93075.56;1787539;80;20974;-66
2022/12/11 06:58:40;;;;;;;0.10;0.10;;;;;;;6.96;76.61;93073.64;1787649;80;21009;-66
2022/12/11 07:01:21;;;;;;;0.10;0.10;;;;;;;6.87;76.19;93078.81;1787523;80;21029;-66
2022/12/11 07:03:48;;;;;;;0.10;0.10;;;;;;;6.78;77.52;93077.47;1787667;80;21436;-66
2022/12/11 07:06:15;;;;;;;0.10;0.10;;;;;;;6.73;77.04;93084.69;1787583;80;20997;-66
2022/12/11 07:08:42;;;;;;;0.10;0.10;;;;;;;6.65;75.75;93106.41;1787642;80;21041;-66
2022/12/11 07:11:13;;;;;;;0.00;0.00;;;;;;;6.57;75.59;93089.72;1787638;80;20990;-66
2022/12/11 07:13:44;;;;;;;0.10;0.10;;;;;;;6.50;77.02;93119.71;1787736;80;20974;-66
2022/12/11 07:16:11;;;;;;;0.10;0.10;;;;;;;6.45;76.20;93119.06;1786239;80;21526;-66
2022/12/11 07:18:40;;;;;;;0.62;0.20;;;;;;;6.41;76.05;93126.20;1787590;80;21455;-66
2022/12/11 07:21:09;;;;;;;0.10;0.10;;;;;;;6.36;75.87;93128.63;1787735;80;20990;-66
2022/12/11 07:23:36;;;;;;;1.00;0.65;;;;;;;6.31;75.46;93122.27;1787695;80;21002;-66
2022/12/11 07:26:09;;;;;;;4.77;3.20;;;;;;;6.20;76.26;93133.63;1787693;80;21029;-66
2022/12/11 07:28:36;;;;;;;4.78;1.10;;;;;;;6.17;76.56;93142.93;1787915;80;21002;-66
2022/12/11 07:31:08;;;;;;;3.10;0.60;;;;;;;6.12;76.16;93160.12;1787950;80;20986;-66
2022/12/11 07:33:35;;;;;;;1.50;0.78;;;;;;;6.09;77.16;93172.05;1787810;80;21009;-66
2022/12/11 07:36:05;;;;;;;1.60;0.67;;;;;;;6.09;77.64;93174.66;1787869;80;21020;-66
2022/12/11 07:38:33;;;;;;;10.17;2.80;;;;;;;6.02;77.29;93183.67;1787378;80;21542;-66
2022/12/11 07:41:05;;;;;;;3.83;1.57;;;;;;;5.97;77.85;93203.51;1787760;80;20974;-66
2022/12/11 07:43:34;;;;;;;0.68;0.47;;;;;;;5.86;77.11;93202.56;1787822;80;21084;-66
2022/12/11 07:46:16;;;;;;;4.13;2.83;;;;;;;5.79;77.13;93206.78;1787710;80;21048;-66
2022/12/11 07:48:46;;;;;;;23.57;10.23;;;;;;;5.67;77.91;93200.71;1787769;80;21037;-66
2022/12/11 07:51:21;;;;;;;14.57;10.60;;;;;;;5.53;78.03;93211.71;1787746;80;21021;-66
2022/12/11 07:53:49;;;;;;;4.50;3.07;;;;;;;5.47;78.51;93202.77;1787549;80;21001;-66
2022/12/11 07:56:18;;;;;;;5.57;3.97;;;;;;;5.37;78.57;93211.44;1787753;80;20962;-66
2022/12/11 07:58:46;;;;;;;4.83;2.30;;;;;;;5.30;78.22;93192.49;1789151;80;21052;-66
2022/12/11 08:01:22;;;;;;;1.83;0.40;;;;;;;5.32;78.43;93215.98;1796124;80;21052;-66
2022/12/11 08:03:49;;;;;;;0.40;0.37;;;;;;;5.24;78.44;93222.80;1796253;80;20989;-66
2022/12/11 08:06:17;;;;;;;1.83;0.80;;;;;;;5.19;78.46;93237.34;1796352;79;20990;-66
2022/12/11 08:08:44;;;;;;;0.77;0.30;;;;;;;5.19;78.62;93232.54;1796164;80;20993;-66
2022/12/11 08:11:13;;;;;;;0.70;0.40;;;;;;;5.16;79.07;93241.80;1796256;79;20989;-66
2022/12/11 08:13:43;;;;;;;5.80;2.40;;;;;;;5.17;79.33;93253.98;1796494;79;20996;-66
2022/12/11 08:16:13;;;;;;;0.20;0.20;;;;;;;5.11;77.85;93282.94;1796175;80;21047;-66
2022/12/11 08:18:40;;;;;;;0.50;0.50;;;;;;;5.07;76.29;93303.11;1796279;80;20989;-66
2022/12/11 08:21:15;;;;;;;0.50;0.50;;;;;;;5.05;76.97;93307.53;1796330;79;21499;-66
2022/12/11 08:23:42;;;;;;;0.33;0.30;;;;;;;5.04;77.68;93317.59;1795886;80;21004;-66
2022/12/11 08:26:14;;;;;;;0.80;0.50;;;;;;;4.98;76.67;93315.17;1796114;80;21009;-66
2022/12/11 08:28:41;;;;;;;0.20;0.10;;;;;;;4.97;77.50;93314.78;1796545;79;21525;-66
2022/12/11 08:31:10;;;;;;;3.30;2.87;;;;;;;4.96;76.03;93326.13;1796271;80;21029;-66
2022/12/11 08:33:37;;;;;;;0.40;0.40;;;;;;;4.90;76.83;93335.48;1796304;80;20977;-66
2022/12/11 08:36:08;;;;;;;0.50;0.20;;;;;;;4.86;75.75;93337.78;1796143;80;20969;-66
2022/12/11 08:38:35;;;;;;;0.10;0.10;;;;;;;4.85;75.83;93340.86;1796091;80;20992;-66
2022/12/11 08:41:17;;;;;;;0.50;0.37;;;;;;;4.86;76.26;93365.22;1796282;80;21482;-66
2022/12/11 08:43:45;;;;;;;0.30;0.20;;;;;;;4.84;74.87;93361.80;1796183;80;20989;-66
2022/12/11 08:46:12;;;;;;;0.73;0.43;;;;;;;4.85;75.21;93397.49;1796221;80;21467;-66
2022/12/11 08:48:42;;;;;;;2.43;0.50;;;;;;;4.79;75.97;93394.63;1796334;80;21005;-66
2022/12/11 08:51:13;;;;;;;1.90;1.10;;;;;;;4.73;77.14;93405.26;1796304;80;21025;-66
2022/12/11 08:53:40;;;;;;;2.83;1.37;;;;;;;4.54;77.07;93407.14;1796793;79;21554;-66
2022/12/11 08:56:11;;;;;;;1.30;0.90;;;;;;;4.34;77.83;93407.74;1796262;80;21497;-66
2022/12/11 08:58:38;;;;;;;1.43;0.70;;;;;;;4.08;77.90;93418.95;1795792;80;21467;-66
2022/12/11 09:01:08;;;;;;;0.80;0.53;;;;;;;3.89;78.16;93429.04;1787579;80;21515;-66
2022/12/11 09:03:36;;;;;;;1.70;1.20;;;;;;;3.64;79.39;93422.79;1787677;80;21053;-66
2022/12/11 09:06:07;;;;;;;2.03;1.20;;;;;;;3.64;79.56;93426.24;1787671;80;21036;-66
2022/12/11 09:08:35;;;;;;;1.87;1.40;;;;;;;3.65;79.24;93428.40;1786999;80;20996;-66
2022/12/11 09:11:06;;;;;;;1.77;1.37;;;;;;;3.57;79.48;93435.58;1787417;80;21018;-66
2022/12/11 09:13:33;;;;;;;3.40;1.70;;;;;;;3.45;79.63;93444.14;1787055;80;21044;-66
2022/12/11 09:16:00;;;;;;;1.70;1.10;;;;;;;3.27;80.17;93456.77;1787819;80;20998;-66
2022/12/11 09:18:26;;;;;;;1.07;0.80;;;;;;;3.16;80.29;93455.74;1787645;80;20981;-66
2022/12/11 09:21:05;;;;;;;0.80;0.80;;;;;;;3.17;80.75;93461.34;1787413;80;21451;-66
2022/12/11 09:23:33;;;;;;;2.27;1.50;;;;;;;3.16;80.50;93468.32;1786844;80;21021;-66
2022/12/11 09:26:05;;;;;;;1.87;1.37;;;;;;;3.22;81.01;93468.16;1787784;80;20985;-66
2022/12/11 09:28:32;;;;;;;3.10;1.73;;;;;;;3.38;81.12;93469.11;1787736;80;20993;-66
2022/12/11 09:30:59;;;;;;;3.50;1.00;;;;;;;3.48;80.54;93470.58;1787424;80;21480;-66
2022/12/11 09:33:26;;;;;;;1.23;0.70;;;;;;;3.62;80.25;93481.49;1787453;80;21077;-66
2022/12/11 09:35:59;;;;;;;2.00;0.97;;;;;;;3.86;80.22;93488.28;1755638;80;21017;-66
2022/12/11 09:38:26;;;;;;;1.00;0.90;;;;;;;4.14;80.21;93488.84;1787420;80;21065;-66
2022/12/11 09:40:53;;;;;;;1.47;1.00;;;;;;;4.45;78.55;93482.28;1787708;80;21471;-66
2022/12/11 09:43:45;;;;;;;0.70;0.40;;;;;;;4.77;77.66;93493.09;1787907;80;21312;-66
2022/12/11 09:46:16;;;;;;;0.37;0.30;;;;;;;5.00;76.92;93496.31;1787103;80;21053;-66
2022/12/11 09:48:47;;;;;;;1.20;0.50;;;;;;;5.29;74.10;93488.88;1787673;80;21002;-66
2022/12/11 09:51:25;;;;;;;0.50;0.23;;;;;;;5.39;73.05;93505.09;1787543;80;21518;-66
2022/12/11 09:53:54;;;;;;;1.23;0.30;;;;;;;5.43;71.57;93498.87;1787160;80;20986;-66
2022/12/11 09:56:35;;;;;;;0.27;0.27;;;;;;;5.37;69.12;93502.55;1787618;80;21005;-66
2022/12/11 09:59:19;;;;;;;0.20;0.10;;;;;;;5.45;69.25;93501.45;1787562;80;21463;-66
2022/12/11 10:02:00;;;;;;;0.30;0.20;;;;;;;5.43;68.88;93515.88;1787582;80;21009;-66
2022/12/11 10:04:35;;;;;;;0.20;0.20;;;;;;;5.39;67.40;93514.25;1768155;80;21030;-66
2022/12/11 10:07:13;;;;;;;0.10;0.10;;;;;;;5.45;67.71;93507.98;1787954;80;21004;-66
2022/12/11 10:09:49;;;;;;;1.33;0.20;;;;;;;5.44;67.68;93518.88;1787326;80;20989;-66
2022/12/11 10:12:39;;;;;;;0.10;0.10;;;;;;;5.43;67.61;93527.19;1787948;80;21006;-66
2022/12/11 10:15:11;;;;;;;0.10;0.10;;;;;;;5.43;67.61;93549.41;1772232;80;21064;-66
2022/12/11 10:17:40;;;;;;;1.07;0.73;;;;;;;5.44;67.86;93513.64;1787337;80;21005;-66
2022/12/11 10:20:16;;;;;;;0.50;0.40;;;;;;;5.49;67.33;93530.50;1787830;80;21029;-66
2022/12/11 10:22:43;;;;;;;0.50;0.50;;;;;;;5.57;67.58;93524.59;1787691;80;20993;-66
2022/12/11 10:25:29;;;;;;;0.60;0.20;;;;;;;5.54;66.15;93529.45;1787723;80;20998;-66
2022/12/11 10:27:56;;;;;;;2.67;1.70;;;;;;;5.45;64.82;93543.30;1787753;80;21020;-66
2022/12/11 10:30:28;;;;;;;1.23;1.07;;;;;;;5.16;65.98;93545.89;1787804;80;20993;-66
2022/12/11 10:33:12;;;;;;;1.13;0.70;;;;;;;5.16;65.96;93551.13;1787804;80;20994;-66
2022/12/11 10:35:43;;;;;;;1.37;0.50;;;;;;;5.14;66.32;93546.84;1787635;80;21514;-66
2022/12/11 10:38:28;;;;;;;0.50;0.40;;;;;;;5.12;66.27;93549.98;1787760;80;21467;-66
2022/12/11 10:41:11;;;;;;;4.23;2.23;;;;;;;5.07;66.07;93549.27;1787410;80;21064;-66
2022/12/11 10:43:47;;;;;;;5.55;2.75;;;;;;;5.06;66.05;93554.06;1787814;80;21522;-66
2022/12/11 10:46:23;;;;;;;3.37;2.23;;;;;;;4.98;64.45;93559.07;1787739;80;21045;-66
2022/12/11 10:48:56;;;;;;;2.33;2.13;;;;;;;5.01;65.94;93548.97;1787576;80;21021;-66
2022/12/11 10:51:31;;;;;;;1.60;1.00;;;;;;;5.06;64.83;93560.14;1787327;80;21059;-66
2022/12/11 10:54:17;;;;;;;1.37;0.37;;;;;;;5.07;66.18;93584.09;1786764;80;21005;-66
2022/12/11 10:56:47;;;;;;;4.70;2.30;;;;;;;5.05;64.28;93586.34;1787638;80;21001;-66
2022/12/11 10:59:38;;;;;;;1.63;0.80;;;;;;;4.94;63.64;93595.82;1787760;80;20974;-66
2022/12/11 11:02:06;;;;;;;0.43;0.30;;;;;;;4.97;64.46;93606.17;1787850;80;21021;-66
2022/12/11 11:04:37;;;;;;;7.00;2.10;;;;;;;4.97;63.46;93611.41;1787634;80;20994;-66
2022/12/11 11:07:12;;;;;;;3.67;1.63;;;;;;;4.99;65.00;93618.30;1787827;80;20974;-66
2022/12/11 11:09:40;;;;;;;1.03;0.57;;;;;;;5.03;64.24;93616.90;1787325;80;21017;-66
2022/12/11 11:12:21;;;;;;;1.20;0.43;;;;;;;4.94;62.99;93616.27;1787654;80;20994;-66
2022/12/11 11:15:01;;;;;;;0.33;0.20;;;;;;;4.98;63.98;93613.11;1773667;80;21028;-66
2022/12/11 11:17:27;;;;;;;2.20;1.07;;;;;;;4.93;63.58;93607.16;1787197;80;21014;-66
2022/12/11 11:19:56;;;;;;;57.77;30.80;;;;;;;4.93;63.65;93616.30;1787646;80;21005;-66
2022/12/11 11:22:23;;;;;;;12.03;6.27;;;;;;;4.89;63.28;93609.44;1787726;80;20989;-66
2022/12/11 11:24:57;;;;;;;2.77;1.33;;;;;;;4.83;65.05;93605.70;1787702;80;20970;-66
2022/12/11 11:27:32;;;;;;;1.27;0.77;;;;;;;4.80;64.24;93611.88;1787695;80;20974;-66
2022/12/11 11:30:07;;;;;;;10.43;8.10;;;;;;;4.86;65.84;93616.91;1787276;80;20970;-66
2022/12/11 11:32:39;;;;;;;13.67;6.47;;;;;;;4.90;64.50;93623.78;1787763;80;20974;-66
2022/12/11 11:35:13;;;;;;;14.90;5.63;;;;;;;4.93;65.77;93613.69;1787868;80;20986;-66
2022/12/11 11:37:44;;;;;;;4.33;2.13;;;;;;;4.93;65.46;93619.77;1787680;80;21006;-66
2022/12/11 11:40:18;;;;;;;0.60;0.23;;;;;;;4.85;63.33;93616.98;1787676;80;21013;-66
2022/12/11 11:42:50;;;;;;;0.10;0.10;;;;;;;4.90;64.65;93625.09;1787690;80;21014;-66
2022/12/11 11:45:28;;;;;;;0.63;0.30;;;;;;;5.37;63.27;93630.69;1757166;80;21067;-66
2022/12/11 11:48:21;;;;;;;1.33;0.60;;;;;;;5.99;64.07;93620.94;1787680;80;21006;-66
2022/12/11 11:50:50;;;;;;;3.65;2.27;;;;;;;6.56;62.00;93619.05;1787705;80;21010;-66
2022/12/11 11:53:28;;;;;;;20.05;6.72;;;;;;;6.82;62.99;93612.88;1787644;80;20998;-66
2022/12/11 11:56:20;;;;;;;0.60;0.40;;;;;;;7.07;62.18;93629.42;1787735;80;21029;-66
2022/12/11 11:59:22;;;;;;;0.40;0.35;;;;;;;7.44;60.74;93638.55;1787760;80;21479;-66
2022/12/11 12:01:53;;;;;;;1.32;1.00;;;;;;;8.05;59.99;93643.17;1776185;80;21009;-66
2022/12/11 12:04:20;;;;;;;21.07;8.40;;;;;;;8.87;58.60;93629.71;1787624;80;21544;-67
2022/12/11 12:07:17;;;;;;;3.00;1.35;;;;;;;9.40;57.52;93627.37;1787743;80;20990;-66